Terminal Aerodrome Forecast
Issued by NWS Mt. Holly, NJ

Current Version | Previous Version | Text Only | Print | Product List | Glossary On
Versions: 1 2 3 4 5 6 7 8 9 10 11 12 13 14
000
FTUS41 KPHI 291735
TAFRDG
TAF
KRDG 291735Z 2918/3018 19007KT P6SM BKN250
     FM292200 20007KT P6SM OVC120
     FM300300 00000KT 5SM -SHRA BR OVC050
      TEMPO 3006/3008 3SM SHRA BKN020
     FM300800 00000KT 2SM -SHRA BR OVC030
      TEMPO 3008/3010 2SM SHRA BR BKN020
     FM301200 00000KT 2SM -RA BR OVC015
      TEMPO 3012/3015 OVC007
     FM301500 VRB03KT P6SM OVC025=

USA.gov is the U.S. government's official web portal to all federal, state and local government web resources and services.